createdAt,value
2017-07-25T00:00:05.914Z,985.26
2017-07-25T00:01:16.181Z,985.27
2017-07-25T00:02:26.750Z,985.28
2017-07-25T00:03:36.705Z,985.23
2017-07-25T00:04:46.978Z,985.26
2017-07-25T00:05:56.934Z,985.24
2017-07-25T00:07:06.892Z,985.23
2017-07-25T00:09:29.842Z,985.3
2017-07-25T00:10:39.794Z,985.28
2017-07-25T00:11:49.748Z,985.26
2017-07-25T00:12:59.704Z,985.29
2017-07-25T00:14:11.826Z,985.31
2017-07-25T00:15:21.782Z,985.31
2017-07-25T00:16:32.049Z,985.31
2017-07-25T00:17:42.009Z,985.29
2017-07-25T00:18:51.963Z,985.32
2017-07-25T00:20:02.489Z,985.29
2017-07-25T00:21:12.459Z,985.3
2017-07-25T00:22:22.410Z,985.29
2017-07-25T00:23:32.362Z,985.26
2017-07-25T00:24:42.634Z,985.29
2017-07-25T00:25:53.207Z,985.3
2017-07-25T00:27:03.476Z,985.27
2017-07-25T00:28:13.430Z,985.28
2017-07-25T00:29:23.697Z,985.29
2017-07-25T00:30:33.339Z,985.3
2017-07-25T00:31:43.924Z,985.29
2017-07-25T00:32:54.202Z,985.28
2017-07-25T00:34:04.473Z,985.3
2017-07-25T00:35:14.742Z,985.27
2017-07-25T00:36:24.397Z,985.31
2017-07-25T00:37:34.822Z,985.27
2017-07-25T00:38:44.780Z,985.27
2017-07-25T00:39:55.051Z,985.27
2017-07-25T00:41:05.333Z,985.28
2017-07-25T00:42:14.973Z,985.34
2017-07-25T00:43:25.445Z,985.33
2017-07-25T00:44:35.718Z,985.37
2017-07-25T00:45:45.672Z,985.33
2017-07-25T00:46:55.625Z,985.35
2017-07-25T00:48:05.581Z,985.32
2017-07-25T00:49:15.371Z,985.36
2017-07-25T00:50:25.643Z,985.31
2017-07-25T00:51:35.916Z,985.32
2017-07-25T00:52:46.186Z,985.3
2017-07-25T00:53:56.447Z,985.31
2017-07-25T00:55:06.865Z,985.27
2017-07-25T00:56:17.143Z,985.26
2017-07-25T00:57:27.103Z,985.28
2017-07-25T00:58:37.066Z,985.3
2017-07-25T00:59:47.335Z,985.29
2017-07-25T01:00:57.702Z,985.27
2017-07-25T01:02:07.664Z,985.31
2017-07-25T01:03:17.932Z,985.27
2017-07-25T01:04:27.892Z,985.31
2017-07-25T01:05:38.168Z,985.28
2017-07-25T01:06:48.582Z,985.33
2017-07-25T01:07:57.907Z,985.31
2017-07-25T01:09:07.863Z,985.31
2017-07-25T01:10:18.131Z,985.31
2017-07-25T01:11:28.400Z,985.31
2017-07-25T01:12:38.606Z,985.34
2017-07-25T01:13:48.874Z,985.34
2017-07-25T01:14:59.140Z,985.36
2017-07-25T01:16:09.413Z,985.34
2017-07-25T01:17:19.363Z,985.37
2017-07-25T01:18:29.418Z,985.38
2017-07-25T01:19:39.687Z,985.43
2017-07-25T01:20:49.950Z,985.42
2017-07-25T01:22:00.219Z,985.37
2017-07-25T01:23:09.547Z,985.39
2017-07-25T01:24:19.757Z,985.39
2017-07-25T01:25:30.025Z,985.35
2017-07-25T01:26:40.297Z,985.37
2017-07-25T01:27:50.568Z,985.32
2017-07-25T01:29:00.839Z,985.31
2017-07-25T01:30:10.897Z,985.29
2017-07-25T01:31:21.161Z,985.28
2017-07-25T01:32:31.426Z,985.26
2017-07-25T01:33:41.381Z,985.3
2017-07-25T01:34:51.336Z,985.3
2017-07-25T01:36:01.756Z,985.27
2017-07-25T01:37:11.408Z,985.3
2017-07-25T01:38:21.678Z,985.26
2017-07-25T01:39:31.947Z,985.31
2017-07-25T01:40:42.226Z,985.26
2017-07-25T01:41:52.493Z,985.29
2017-07-25T01:43:02.445Z,985.26
2017-07-25T01:44:12.719Z,985.25
2017-07-25T01:45:23.012Z,985.25
2017-07-25T01:46:32.964Z,985.27
2017-07-25T01:47:43.250Z,985.24
2017-07-25T01:48:53.518Z,985.25
2017-07-25T01:50:03.789Z,985.27
2017-07-25T01:51:14.059Z,985.22
2017-07-25T01:52:24.336Z,985.2
2017-07-25T01:53:34.287Z,985.24
2017-07-25T01:54:43.929Z,985.21
2017-07-25T01:55:54.194Z,985.19
2017-07-25T01:57:03.834Z,985.2
2017-07-25T01:58:13.478Z,985.21
2017-07-25T01:59:23.749Z,985.18
2017-07-25T02:00:34.024Z,985.17
2017-07-25T02:01:44.292Z,985.17
2017-07-25T02:02:54.567Z,985.18
2017-07-25T02:04:04.835Z,985.15
2017-07-25T02:05:15.104Z,985.13
2017-07-25T02:06:25.367Z,985.15
2017-07-25T02:07:35.637Z,985.11
2017-07-25T02:08:45.903Z,985.11
2017-07-25T02:09:56.175Z,985.1
2017-07-25T02:11:08.385Z,985.14
2017-07-25T02:12:18.022Z,985.1
2017-07-25T02:13:28.286Z,985.12
2017-07-25T02:14:38.554Z,985.15
2017-07-25T02:15:48.504Z,985.13
2017-07-25T02:16:58.775Z,985.11
2017-07-25T02:18:09.051Z,985.13
2017-07-25T02:19:19.010Z,985.12
2017-07-25T02:20:28.963Z,985.1
2017-07-25T02:21:39.231Z,985.08
2017-07-25T02:22:49.499Z,985.13
2017-07-25T02:23:59.763Z,985.12
2017-07-25T02:25:09.717Z,985.12
2017-07-25T02:26:19.362Z,985.09
2017-07-25T02:27:29.630Z,985.11
2017-07-25T02:28:39.900Z,985.1
2017-07-25T02:29:49.855Z,985.09
2017-07-25T02:30:59.493Z,985.12
2017-07-25T02:32:09.770Z,985.12
2017-07-25T02:33:19.733Z,985.09
2017-07-25T02:34:30.007Z,985.08
2017-07-25T02:35:40.277Z,985.08
2017-07-25T02:36:50.235Z,985.06
2017-07-25T02:38:00.506Z,985.04
2017-07-25T02:39:10.782Z,985.07
2017-07-25T02:40:21.055Z,985.07
2017-07-25T02:41:31.010Z,985.05
2017-07-25T02:42:40.962Z,985.02
2017-07-25T02:43:50.915Z,985.04
2017-07-25T02:45:01.181Z,985.05
2017-07-25T02:46:11.455Z,985.07
2017-07-25T02:47:21.720Z,985.09
2017-07-25T02:48:31.992Z,985.04
2017-07-25T02:49:41.638Z,985.05
2017-07-25T02:50:50.967Z,985.05
2017-07-25T02:52:00.929Z,985.03
2017-07-25T02:53:10.887Z,985
2017-07-25T02:54:20.842Z,985.04
2017-07-25T02:55:31.114Z,985.05
2017-07-25T02:56:41.384Z,985.07
2017-07-25T02:57:51.652Z,985.05
2017-07-25T02:59:01.959Z,985.05
2017-07-25T03:00:12.227Z,985.04
2017-07-25T03:01:21.868Z,985.04
2017-07-25T03:02:32.143Z,985.06
2017-07-25T03:03:42.427Z,985.05
2017-07-25T03:04:52.691Z,985.04
2017-07-25T03:06:02.654Z,985.02
2017-07-25T03:07:12.610Z,985.07
2017-07-25T03:08:22.877Z,985.04
2017-07-25T03:09:32.206Z,985.06
2017-07-25T03:10:42.477Z,985.06
2017-07-25T03:11:52.431Z,985.05
2017-07-25T03:13:02.699Z,985.05
2017-07-25T03:14:12.655Z,985.06
2017-07-25T03:15:22.925Z,985.06
2017-07-25T03:16:33.193Z,985.04
2017-07-25T03:17:43.463Z,985.08
2017-07-25T03:18:53.752Z,985.07
2017-07-25T03:20:03.715Z,985.04
2017-07-25T03:21:13.993Z,985.03
2017-07-25T03:22:24.260Z,985.02
2017-07-25T03:23:34.526Z,985.05
2017-07-25T03:24:44.167Z,985.05
2017-07-25T03:25:54.434Z,985.07
2017-07-25T03:27:04.706Z,985.05
2017-07-25T03:28:14.344Z,985.08
2017-07-25T03:29:24.618Z,985.07
2017-07-25T03:30:34.574Z,985.04
2017-07-25T03:31:44.863Z,985.03
2017-07-25T03:32:55.131Z,985.01
2017-07-25T03:34:05.083Z,985
2017-07-25T03:35:15.353Z,985.01
2017-07-25T03:36:25.308Z,984.99
2017-07-25T03:37:35.265Z,985.03
2017-07-25T03:38:45.548Z,985.02
2017-07-25T03:39:55.815Z,985.02
2017-07-25T03:41:05.459Z,985.06
2017-07-25T03:42:15.730Z,985.03
2017-07-25T03:43:25.368Z,985.05
2017-07-25T03:44:35.637Z,985.02
2017-07-25T03:45:45.912Z,985.01
2017-07-25T03:46:56.194Z,985.04
2017-07-25T03:48:06.464Z,985.05
2017-07-25T03:49:16.422Z,985.02
2017-07-25T03:50:26.379Z,985.01
2017-07-25T03:51:36.657Z,985.03
2017-07-25T03:52:46.926Z,985.05
2017-07-25T03:53:57.199Z,985.05
2017-07-25T03:55:07.486Z,985.06
2017-07-25T03:56:17.442Z,985.09
2017-07-25T03:57:27.401Z,985.07
2017-07-25T03:58:37.362Z,985.02
2017-07-25T03:59:47.629Z,985.08
2017-07-25T04:00:57.898Z,985.06
2017-07-25T04:02:08.167Z,985.03
2017-07-25T04:03:17.810Z,985.05
2017-07-25T04:04:28.091Z,985.05
2017-07-25T04:05:38.060Z,985.03
2017-07-25T04:06:48.022Z,985.03
2017-07-25T04:07:58.292Z,985.03
2017-07-25T04:09:07.939Z,985.01
2017-07-25T04:10:17.582Z,985.01
2017-07-25T04:11:27.862Z,985.02
2017-07-25T04:12:38.146Z,985.02
2017-07-25T04:13:48.424Z,985.02
2017-07-25T04:14:58.382Z,985.04
2017-07-25T04:16:08.657Z,985.05
2017-07-25T04:17:18.609Z,985.02
2017-07-25T04:18:28.879Z,985.04
2017-07-25T04:19:39.164Z,985.04
2017-07-25T04:20:48.807Z,985.05
2017-07-25T04:21:58.762Z,985.04
2017-07-25T04:23:09.037Z,985.06
2017-07-25T04:24:19.309Z,985.07
2017-07-25T04:25:29.580Z,985.09
2017-07-25T04:26:39.856Z,985.13
2017-07-25T04:27:50.126Z,985.12
2017-07-25T04:29:00.086Z,985.12
2017-07-25T04:30:10.350Z,985.16
2017-07-25T04:31:20.618Z,985.1
2017-07-25T04:32:30.932Z,985.17
2017-07-25T04:33:41.205Z,985.12
2017-07-25T04:34:51.179Z,985.12
2017-07-25T04:36:01.142Z,985.15
2017-07-25T04:37:11.414Z,985.12
2017-07-25T04:38:21.683Z,985.08
2017-07-25T04:39:31.646Z,985.12
2017-07-25T04:40:41.605Z,985.07
2017-07-25T04:41:51.878Z,985.1
2017-07-25T04:43:02.150Z,985.06
2017-07-25T04:44:12.425Z,985.07
2017-07-25T04:45:22.718Z,985.06
2017-07-25T04:46:32.986Z,985.04
2017-07-25T04:47:42.943Z,985.01
2017-07-25T04:48:53.215Z,984.97
2017-07-25T04:50:03.170Z,984.97
2017-07-25T04:51:13.456Z,984.92
2017-07-25T04:52:23.427Z,984.95
2017-07-25T04:53:33.699Z,984.91
2017-07-25T04:54:43.974Z,984.95
2017-07-25T04:55:54.245Z,984.92
2017-07-25T04:57:04.516Z,984.92
2017-07-25T04:58:14.473Z,984.9
2017-07-25T04:59:24.743Z,984.93
2017-07-25T05:00:35.013Z,984.92
2017-07-25T05:01:44.973Z,984.92
2017-07-25T05:02:55.244Z,984.92
2017-07-25T05:04:05.520Z,984.88
2017-07-25T05:05:15.171Z,984.94
2017-07-25T05:06:24.811Z,984.91
2017-07-25T05:07:35.086Z,984.87
2017-07-25T05:08:45.356Z,984.88
2017-07-25T05:09:55.626Z,984.9
2017-07-25T05:11:05.599Z,984.86
2017-07-25T05:12:15.890Z,984.88
2017-07-25T05:13:26.158Z,984.87
2017-07-25T05:14:36.451Z,984.89
2017-07-25T05:15:46.722Z,984.92
2017-07-25T05:16:57.012Z,984.9
2017-07-25T05:18:07.288Z,984.89
2017-07-25T05:19:17.561Z,984.91
2017-07-25T05:20:27.832Z,984.87
2017-07-25T05:21:37.792Z,984.86
2017-07-25T05:22:48.064Z,984.88
2017-07-25T05:23:58.020Z,984.87
2017-07-25T05:25:08.289Z,984.84
2017-07-25T05:26:18.562Z,984.84
2017-07-25T05:27:28.516Z,984.86
2017-07-25T05:28:38.471Z,984.86
2017-07-25T05:29:48.429Z,984.87
2017-07-25T05:30:58.705Z,984.91
2017-07-25T05:32:08.663Z,984.91
2017-07-25T05:33:18.317Z,984.95
2017-07-25T05:34:27.970Z,984.87
2017-07-25T05:35:37.925Z,984.92
2017-07-25T05:36:48.224Z,984.91
2017-07-25T05:37:58.497Z,984.88
2017-07-25T05:39:08.775Z,984.91
2017-07-25T05:40:19.046Z,984.91
2017-07-25T05:41:29.316Z,984.91
2017-07-25T05:42:39.592Z,984.88
2017-07-25T05:43:49.863Z,984.86
2017-07-25T05:45:00.139Z,984.91
2017-07-25T05:46:10.423Z,984.89
2017-07-25T05:47:20.381Z,984.89
2017-07-25T05:48:30.649Z,984.88
2017-07-25T05:49:40.605Z,984.84
2017-07-25T05:50:50.875Z,984.85
2017-07-25T05:52:00.833Z,984.84
2017-07-25T05:53:10.480Z,984.84
2017-07-25T05:54:20.756Z,984.84
2017-07-25T05:55:31.029Z,984.85
2017-07-25T05:56:41.300Z,984.81
2017-07-25T05:57:51.573Z,984.82
2017-07-25T05:59:01.859Z,984.84
2017-07-25T06:00:12.136Z,984.85
2017-07-25T06:01:22.097Z,984.84
2017-07-25T06:02:32.051Z,984.84
2017-07-25T06:03:42.323Z,984.81
2017-07-25T06:04:52.597Z,984.78
2017-07-25T06:06:02.552Z,984.75
2017-07-25T06:07:12.822Z,984.75
2017-07-25T06:08:22.778Z,984.72
2017-07-25T06:09:33.055Z,984.68
2017-07-25T06:10:43.326Z,984.63
2017-07-25T06:11:52.970Z,984.62
2017-07-25T06:13:03.244Z,984.62
2017-07-25T06:14:13.511Z,984.61
2017-07-25T06:15:23.470Z,984.64
2017-07-25T06:16:33.748Z,984.64
2017-07-25T06:17:44.026Z,984.64
2017-07-25T06:18:54.293Z,984.63
2017-07-25T06:20:04.563Z,984.65
2017-07-25T06:21:14.529Z,984.67
2017-07-25T06:22:24.799Z,984.65
2017-07-25T06:23:34.446Z,984.68
2017-07-25T06:24:44.721Z,984.72
2017-07-25T06:25:54.996Z,984.67
2017-07-25T06:27:04.645Z,984.69
2017-07-25T06:28:14.919Z,984.7
2017-07-25T06:29:25.184Z,984.69
2017-07-25T06:30:35.137Z,984.67
2017-07-25T06:31:45.408Z,984.72
2017-07-25T06:32:55.049Z,984.7
2017-07-25T06:34:05.325Z,984.69
2017-07-25T06:35:14.967Z,984.71
2017-07-25T06:36:24.610Z,984.7
2017-07-25T06:37:34.877Z,984.7
2017-07-25T06:38:45.151Z,984.73
2017-07-25T06:39:55.423Z,984.73
2017-07-25T06:41:05.391Z,984.75
2017-07-25T06:42:15.350Z,984.73
2017-07-25T06:43:25.314Z,984.73
2017-07-25T06:44:35.271Z,984.75
2017-07-25T06:45:45.231Z,984.72
2017-07-25T06:46:55.516Z,984.72
2017-07-25T06:48:05.789Z,984.73
2017-07-25T06:49:15.761Z,984.68
2017-07-25T06:50:26.040Z,984.67
2017-07-25T06:51:35.998Z,984.69
2017-07-25T06:52:45.964Z,984.67
2017-07-25T06:53:56.236Z,984.72
2017-07-25T06:55:05.880Z,984.75
2017-07-25T06:56:16.161Z,984.76
2017-07-25T06:57:26.117Z,984.76
2017-07-25T06:58:36.077Z,984.75
2017-07-25T06:59:46.349Z,984.74
2017-07-25T07:00:56.304Z,984.79
2017-07-25T07:02:06.577Z,984.8
2017-07-25T07:03:16.850Z,984.81
2017-07-25T07:04:27.123Z,984.75
2017-07-25T07:05:37.089Z,984.77
2017-07-25T07:06:47.051Z,984.79
2017-07-25T07:07:56.380Z,984.84
2017-07-25T07:09:06.666Z,984.78
2017-07-25T07:10:16.937Z,984.83
2017-07-25T07:11:27.212Z,984.81
2017-07-25T07:12:37.175Z,984.83
2017-07-25T07:13:47.444Z,984.82
2017-07-25T07:14:57.402Z,984.78
2017-07-25T07:16:07.364Z,984.79
2017-07-25T07:17:17.637Z,984.72
2017-07-25T07:18:27.915Z,984.72
2017-07-25T07:19:38.183Z,984.71
2017-07-25T07:20:47.832Z,984.74
2017-07-25T07:21:58.102Z,984.76
2017-07-25T07:23:08.077Z,984.69
2017-07-25T07:24:18.352Z,984.75
2017-07-25T07:25:28.317Z,984.74
2017-07-25T07:26:38.613Z,984.75
2017-07-25T07:27:48.580Z,984.75
2017-07-25T07:28:58.862Z,984.7
2017-07-25T07:30:09.151Z,984.71
2017-07-25T07:31:19.112Z,984.74
2017-07-25T07:32:29.398Z,984.75
2017-07-25T07:33:39.671Z,984.79
2017-07-25T07:34:49.625Z,984.75
2017-07-25T07:35:59.587Z,984.75
2017-07-25T07:37:09.872Z,984.73
2017-07-25T07:38:19.824Z,984.7
2017-07-25T07:39:30.099Z,984.67
2017-07-25T07:40:40.370Z,984.67
2017-07-25T07:41:50.327Z,984.7
2017-07-25T07:43:00.286Z,984.69
2017-07-25T07:44:10.251Z,984.69
2017-07-25T07:45:20.525Z,984.65
2017-07-25T07:46:30.482Z,984.72
2017-07-25T07:47:40.755Z,984.73
2017-07-25T07:48:50.711Z,984.7
2017-07-25T07:50:00.667Z,984.72
2017-07-25T07:51:10.624Z,984.68
2017-07-25T07:52:20.894Z,984.7
2017-07-25T07:53:30.847Z,984.64
2017-07-25T07:54:41.122Z,984.64
2017-07-25T07:55:51.396Z,984.68
2017-07-25T07:57:01.677Z,984.66
2017-07-25T07:58:11.632Z,984.62
2017-07-25T07:59:21.586Z,984.65
2017-07-25T08:00:31.865Z,984.64
2017-07-25T08:01:42.147Z,984.64
2017-07-25T08:02:52.441Z,984.64
2017-07-25T08:04:02.400Z,984.64
2017-07-25T08:05:12.671Z,984.61
2017-07-25T08:06:22.635Z,984.58
2017-07-25T08:07:32.903Z,984.56
2017-07-25T08:08:43.178Z,984.55
2017-07-25T08:09:53.448Z,984.52
2017-07-25T08:11:03.089Z,984.54
2017-07-25T08:12:13.363Z,984.54
2017-07-25T08:13:23.325Z,984.51
2017-07-25T08:14:33.599Z,984.51
2017-07-25T08:15:43.877Z,984.54
2017-07-25T08:16:53.837Z,984.55
2017-07-25T08:18:04.110Z,984.55
2017-07-25T08:19:14.382Z,984.56
2017-07-25T08:20:24.660Z,984.53
2017-07-25T08:21:34.614Z,984.43
2017-07-25T08:22:44.570Z,984.45
2017-07-25T08:23:54.214Z,984.4
2017-07-25T08:25:04.172Z,984.42
2017-07-25T08:26:14.193Z,984.43
2017-07-25T08:27:24.472Z,984.38
2017-07-25T08:28:34.749Z,984.4
2017-07-25T08:29:45.028Z,984.43
2017-07-25T08:30:55.309Z,984.44
2017-07-25T08:32:05.272Z,984.4
2017-07-25T08:33:15.229Z,984.42
2017-07-25T08:34:25.501Z,984.4
2017-07-25T08:35:35.776Z,984.41
2017-07-25T08:36:45.740Z,984.4
2017-07-25T08:37:56.013Z,984.41
2017-07-25T08:39:05.666Z,984.41
2017-07-25T08:40:15.626Z,984.4
2017-07-25T08:41:25.900Z,984.38
2017-07-25T08:42:35.862Z,984.39
2017-07-25T08:43:46.132Z,984.42
2017-07-25T08:44:56.088Z,984.41
2017-07-25T08:46:05.746Z,984.44
2017-07-25T08:47:16.033Z,984.42
2017-07-25T08:48:25.990Z,984.43
2017-07-25T08:49:36.270Z,984.43
2017-07-25T08:50:46.543Z,984.39
2017-07-25T08:51:56.818Z,984.44
2017-07-25T08:53:07.104Z,984.43
2017-07-25T08:54:17.068Z,984.4
2017-07-25T08:55:27.023Z,984.41
2017-07-25T08:56:37.318Z,984.4
2017-07-25T08:57:47.590Z,984.39
2017-07-25T08:58:57.240Z,984.37
2017-07-25T09:00:07.515Z,984.35
2017-07-25T09:01:17.489Z,984.37
2017-07-25T09:02:27.765Z,984.36
2017-07-25T09:03:38.058Z,984.32
2017-07-25T09:04:48.031Z,984.29
2017-07-25T09:05:58.300Z,984.25
2017-07-25T09:07:08.260Z,984.26
2017-07-25T09:08:18.535Z,984.2
2017-07-25T09:09:28.829Z,984.22
2017-07-25T09:10:39.107Z,984.23
2017-07-25T09:11:49.070Z,984.24
2017-07-25T09:12:59.345Z,984.23
2017-07-25T09:14:09.624Z,984.29
2017-07-25T09:15:19.582Z,984.26
2017-07-25T09:16:29.541Z,984.3
2017-07-25T09:17:39.810Z,984.28
2017-07-25T09:18:50.083Z,984.27
2017-07-25T09:20:00.044Z,984.24
2017-07-25T09:21:10.004Z,984.24
2017-07-25T09:22:20.280Z,984.23
2017-07-25T09:23:30.555Z,984.22
2017-07-25T09:24:40.841Z,984.23
2017-07-25T09:25:51.150Z,984.21
2017-07-25T09:27:01.112Z,984.16
2017-07-25T09:28:11.081Z,984.24
2017-07-25T09:29:21.357Z,984.21
2017-07-25T09:30:31.633Z,984.19
2017-07-25T09:31:41.604Z,984.2
2017-07-25T09:32:51.877Z,984.2
2017-07-25T09:34:01.848Z,984.21
2017-07-25T09:35:12.135Z,984.19
2017-07-25T09:36:22.100Z,984.2
2017-07-25T09:37:32.370Z,984.19
2017-07-25T09:38:42.329Z,984.16
2017-07-25T09:39:52.610Z,984.11
2017-07-25T09:41:02.569Z,984.12
2017-07-25T09:42:12.538Z,984.12
2017-07-25T09:43:22.807Z,984.11
2017-07-25T09:44:32.769Z,984.09
2017-07-25T09:45:43.041Z,984.08
2017-07-25T09:46:53.003Z,984.06
2017-07-25T09:48:03.280Z,984.09
2017-07-25T09:49:13.558Z,984.05
2017-07-25T09:50:23.203Z,984.07
2017-07-25T09:51:33.172Z,984.06
2017-07-25T09:52:43.138Z,984.06
2017-07-25T09:53:53.444Z,983.99
2017-07-25T09:55:03.721Z,984.04
2017-07-25T09:56:13.998Z,984
2017-07-25T09:57:24.280Z,984.06
2017-07-25T09:58:33.612Z,984.04
2017-07-25T09:59:43.896Z,984
2017-07-25T10:00:54.168Z,983.98
2017-07-25T10:02:03.827Z,984
2017-07-25T10:03:13.788Z,983.97
2017-07-25T10:04:23.750Z,983.95
2017-07-25T10:05:34.028Z,983.94
2017-07-25T10:06:44.300Z,983.95
2017-07-25T10:07:54.569Z,983.95
2017-07-25T10:09:04.843Z,983.96
2017-07-25T10:10:14.806Z,983.99
2017-07-25T10:11:24.767Z,983.94
2017-07-25T10:12:34.726Z,983.96
2017-07-25T10:13:45.003Z,983.95
2017-07-25T10:14:55.277Z,983.96
2017-07-25T10:16:04.926Z,983.95
2017-07-25T10:17:15.208Z,983.93
2017-07-25T10:18:25.488Z,983.92
2017-07-25T10:19:35.456Z,983.94
2017-07-25T10:20:45.740Z,983.87
2017-07-25T10:21:56.020Z,983.85
2017-07-25T10:23:05.987Z,983.82
2017-07-25T10:24:16.261Z,983.81
2017-07-25T10:25:26.238Z,983.85
2017-07-25T10:26:36.512Z,983.89
2017-07-25T10:27:46.473Z,983.94
2017-07-25T10:28:56.761Z,983.88
2017-07-25T10:30:07.040Z,983.88
2017-07-25T10:31:17.000Z,983.83
2017-07-25T10:32:27.278Z,983.85
2017-07-25T10:33:37.555Z,983.86
2017-07-25T10:34:47.831Z,983.79
2017-07-25T10:35:58.110Z,983.79
2017-07-25T10:37:08.385Z,983.77
2017-07-25T10:38:18.351Z,983.78
2017-07-25T10:39:28.324Z,983.77
2017-07-25T10:40:38.601Z,983.72
2017-07-25T10:41:48.887Z,983.71
2017-07-25T10:42:59.164Z,983.69
2017-07-25T10:44:09.453Z,983.66
2017-07-25T10:45:19.416Z,983.68
2017-07-25T10:46:29.698Z,983.73
2017-07-25T10:47:39.662Z,983.73
2017-07-25T10:48:49.942Z,983.77
2017-07-25T10:50:00.215Z,983.76
2017-07-25T10:51:09.550Z,983.8
2017-07-25T10:52:19.828Z,983.78
2017-07-25T10:53:29.789Z,983.79
2017-07-25T10:54:40.065Z,983.78
2017-07-25T10:55:50.344Z,983.75
2017-07-25T10:57:00.619Z,983.77
2017-07-25T10:58:09.953Z,983.75
2017-07-25T10:59:19.605Z,983.76
2017-07-25T11:00:29.888Z,983.71
2017-07-25T11:01:40.164Z,983.72
2017-07-25T11:02:50.448Z,983.74
2017-07-25T11:04:00.730Z,983.7
2017-07-25T11:05:10.691Z,983.72
2017-07-25T11:06:20.966Z,983.67
2017-07-25T11:07:31.244Z,983.71
2017-07-25T11:08:41.518Z,983.66
2017-07-25T11:09:51.489Z,983.66
2017-07-25T11:11:01.768Z,983.63
2017-07-25T11:12:11.755Z,983.67
2017-07-25T11:13:21.714Z,983.78
2017-07-25T11:14:31.053Z,983.77
2017-07-25T11:15:41.330Z,983.72
2017-07-25T11:16:51.291Z,983.74
2017-07-25T11:18:00.949Z,983.67
2017-07-25T11:19:10.919Z,983.65
2017-07-25T11:20:20.885Z,983.64
2017-07-25T11:21:30.847Z,983.59
2017-07-25T11:22:41.122Z,983.55
2017-07-25T11:23:51.083Z,983.55
2017-07-25T11:25:01.391Z,983.53
2017-07-25T11:26:11.354Z,983.57
2017-07-25T11:27:21.653Z,983.6
2017-07-25T11:28:31.933Z,983.6
2017-07-25T11:29:42.205Z,983.56
2017-07-25T11:30:52.168Z,983.53
2017-07-25T11:32:01.824Z,983.52
2017-07-25T11:33:11.790Z,983.52
2017-07-25T11:34:21.773Z,983.51
2017-07-25T11:35:31.742Z,983.5
2017-07-25T11:36:42.025Z,983.54
2017-07-25T11:37:52.303Z,983.55
2017-07-25T11:39:02.270Z,983.55
2017-07-25T11:40:12.549Z,983.62
2017-07-25T11:41:22.517Z,983.71
2017-07-25T11:42:32.487Z,983.7
2017-07-25T11:43:42.775Z,983.72
2017-07-25T11:44:53.053Z,983.69
2017-07-25T11:46:03.024Z,983.74
2017-07-25T11:47:12.997Z,983.69
2017-07-25T11:48:23.281Z,983.66
2017-07-25T11:49:33.560Z,983.71
2017-07-25T11:50:43.848Z,983.64
2017-07-25T11:51:53.829Z,983.69
2017-07-25T11:53:03.805Z,983.63
2017-07-25T11:54:14.091Z,983.64
2017-07-25T11:55:24.063Z,983.63
2017-07-25T11:56:34.029Z,983.6
2017-07-25T11:57:44.314Z,983.64
2017-07-25T11:58:54.598Z,983.59
2017-07-25T12:00:04.265Z,983.63
2017-07-25T12:01:16.358Z,983.65
2017-07-25T12:02:26.334Z,983.54
2017-07-25T12:03:36.622Z,983.51
2017-07-25T12:04:46.907Z,983.48
2017-07-25T12:05:57.196Z,983.54
2017-07-25T12:07:07.487Z,983.52
2017-07-25T12:08:17.462Z,983.53
2017-07-25T12:09:27.117Z,983.52
2017-07-25T12:10:37.098Z,983.5
2017-07-25T12:11:47.381Z,983.48
2017-07-25T12:12:57.355Z,983.44
2017-07-25T12:14:07.645Z,983.47
2017-07-25T12:15:17.926Z,983.43
2017-07-25T12:16:27.914Z,983.19
2017-07-25T12:17:37.582Z,983.37
2017-07-25T12:18:47.871Z,983.49
2017-07-25T12:19:57.537Z,983.44
2017-07-25T12:21:07.513Z,983.45
2017-07-25T12:22:17.206Z,983.41
2017-07-25T12:23:27.183Z,983.42
2017-07-25T12:24:37.161Z,983.48
2017-07-25T12:25:47.133Z,983.39
2017-07-25T12:26:57.105Z,983.38
2017-07-25T12:28:07.090Z,983.39
2017-07-25T12:29:16.763Z,983.42
2017-07-25T12:30:26.771Z,983.36
2017-07-25T12:31:37.061Z,983.33
2017-07-25T12:32:47.353Z,983.32
2017-07-25T12:33:57.324Z,983.32
2017-07-25T12:35:07.610Z,983.35
2017-07-25T12:36:17.896Z,983.34
2017-07-25T12:37:28.182Z,983.34
2017-07-25T12:38:38.463Z,983.35
2017-07-25T12:39:48.752Z,983.38
2017-07-25T12:40:59.042Z,983.36
2017-07-25T12:42:09.338Z,983.37
2017-07-25T12:43:19.326Z,983.35
2017-07-25T12:44:29.616Z,983.29
2017-07-25T12:45:39.906Z,983.3
2017-07-25T12:46:49.883Z,983.29
2017-07-25T12:48:00.181Z,983.34
2017-07-25T12:49:10.479Z,983.42
2017-07-25T12:50:20.770Z,983.3
2017-07-25T12:51:30.747Z,983.24
2017-07-25T12:52:41.038Z,983.24
2017-07-25T12:53:51.327Z,983.33
2017-07-25T12:55:01.641Z,983.33
2017-07-25T12:56:11.973Z,983.31
2017-07-25T12:57:22.268Z,983.27
2017-07-25T12:58:32.240Z,983.34
2017-07-25T12:59:41.902Z,983.33
2017-07-25T13:00:51.876Z,983.33
2017-07-25T13:02:01.857Z,983.26
2017-07-25T13:03:12.148Z,983.31
2017-07-25T13:04:22.130Z,983.29
2017-07-25T13:05:32.426Z,983.34
2017-07-25T13:06:42.717Z,983.03
2017-07-25T13:07:52.380Z,983.07
2017-07-25T13:09:02.353Z,983.22
2017-07-25T13:10:12.332Z,983.28
2017-07-25T13:11:22.309Z,983.28
2017-07-25T13:12:32.599Z,983.31
2017-07-25T13:13:42.891Z,983.21
2017-07-25T13:14:53.184Z,983.17
2017-07-25T13:16:03.480Z,983.14
2017-07-25T13:17:13.454Z,983.13
2017-07-25T13:18:23.764Z,983.24
2017-07-25T13:19:33.743Z,983.16
2017-07-25T13:20:44.034Z,983.15
2017-07-25T13:21:54.013Z,983.15
2017-07-25T13:23:04.355Z,983.1
2017-07-25T13:24:14.332Z,983.1
2017-07-25T13:25:24.319Z,983.08
2017-07-25T13:26:33.989Z,983.11
2017-07-25T13:27:44.292Z,983.15
2017-07-25T13:28:54.591Z,983.14
2017-07-25T13:30:04.886Z,983.16
2017-07-25T13:31:14.864Z,983.09
2017-07-25T13:32:25.158Z,983.13
2017-07-25T13:33:35.135Z,983.2
2017-07-25T13:34:44.802Z,983.16
2017-07-25T13:35:54.776Z,983.15
2017-07-25T13:37:05.070Z,983.07
2017-07-25T13:38:15.362Z,983.02
2017-07-25T13:39:25.341Z,982.97
2017-07-25T13:40:37.634Z,982.92
2017-07-25T13:41:47.606Z,982.96
2017-07-25T13:42:57.591Z,982.95
2017-07-25T13:44:07.570Z,982.94
2017-07-25T13:45:17.548Z,982.98
2017-07-25T13:46:27.840Z,982.99
2017-07-25T13:47:37.818Z,983
2017-07-25T13:48:47.795Z,983.05
2017-07-25T13:49:58.088Z,983.12
2017-07-25T13:51:08.378Z,983.06
2017-07-25T13:52:18.671Z,983.03
2017-07-25T13:53:28.960Z,983.01
2017-07-25T13:54:39.250Z,982.93
2017-07-25T13:55:49.228Z,982.94
2017-07-25T13:56:59.204Z,982.96
2017-07-25T13:58:09.495Z,982.93
2017-07-25T13:59:19.469Z,982.94
2017-07-25T14:00:29.445Z,982.96
2017-07-25T14:01:39.745Z,982.89
2017-07-25T14:02:49.728Z,982.94
2017-07-25T14:03:59.709Z,983.01
2017-07-25T14:05:09.689Z,983.1
2017-07-25T14:06:19.985Z,983.04
2017-07-25T14:07:29.959Z,983.07
2017-07-25T14:08:39.937Z,983.17
2017-07-25T14:09:50.236Z,983.27
2017-07-25T14:11:00.217Z,983.31
2017-07-25T14:12:10.507Z,983.41
2017-07-25T14:13:20.807Z,983.41
2017-07-25T14:14:31.112Z,983.4
2017-07-25T14:15:41.402Z,983.32
2017-07-25T14:16:51.694Z,983.35
2017-07-25T14:18:01.987Z,983.36
2017-07-25T14:19:11.974Z,983.35
2017-07-25T14:20:22.275Z,983.36
2017-07-25T14:21:32.253Z,983.36
2017-07-25T14:22:42.234Z,983.24
2017-07-25T14:23:52.218Z,982.81
2017-07-25T14:25:02.521Z,982.97
2017-07-25T14:26:12.499Z,983.26
2017-07-25T14:27:22.473Z,983.15
2017-07-25T14:28:32.456Z,982.79
2017-07-25T14:29:42.449Z,983.22
2017-07-25T14:30:52.422Z,983.43
2017-07-25T14:32:02.085Z,983.36
2017-07-25T14:33:11.750Z,983.37
2017-07-25T14:34:21.725Z,983.35
2017-07-25T14:35:31.703Z,983.4
2017-07-25T14:36:41.676Z,983.41
2017-07-25T14:37:51.347Z,983.36